sensor_id;sensor_type;location;lat;lon;timestamp;P1;durP1;ratioP1;P2;durP2;ratioP2
14760;SDS011;7472;45.396;5.272;2023-02-16T00:00:59;24.25;;;17.58;;
14760;SDS011;7472;45.396;5.272;2023-02-16T00:03:27;23.08;;;17.65;;
14760;SDS011;7472;45.396;5.272;2023-02-16T00:05:54;20.88;;;16.27;;
14760;SDS011;7472;45.396;5.272;2023-02-16T00:08:22;22.88;;;16.67;;
14760;SDS011;7472;45.396;5.272;2023-02-16T00:10:49;19.42;;;15.43;;
14760;SDS011;7472;45.396;5.272;2023-02-16T00:13:34;24.67;;;17.98;;
14760;SDS011;7472;45.396;5.272;2023-02-16T00:16:17;20.95;;;16.55;;
14760;SDS011;7472;45.396;5.272;2023-02-16T00:18:45;22.85;;;17.70;;
14760;SDS011;7472;45.396;5.272;2023-02-16T00:21:12;27.88;;;22.00;;
14760;SDS011;7472;45.396;5.272;2023-02-16T00:23:40;26.02;;;20.02;;
14760;SDS011;7472;45.396;5.272;2023-02-16T00:26:11;20.77;;;16.95;;
14760;SDS011;7472;45.396;5.272;2023-02-16T00:28:39;18.88;;;15.15;;
14760;SDS011;7472;45.396;5.272;2023-02-16T00:31:09;22.17;;;18.38;;
14760;SDS011;7472;45.396;5.272;2023-02-16T00:33:41;22.15;;;15.70;;
14760;SDS011;7472;45.396;5.272;2023-02-16T00:36:09;21.70;;;17.17;;
14760;SDS011;7472;45.396;5.272;2023-02-16T00:38:36;21.95;;;17.50;;
14760;SDS011;7472;45.396;5.272;2023-02-16T00:41:04;25.00;;;17.05;;
14760;SDS011;7472;45.396;5.272;2023-02-16T00:43:51;22.85;;;16.75;;
14760;SDS011;7472;45.396;5.272;2023-02-16T00:46:20;21.27;;;16.15;;
14760;SDS011;7472;45.396;5.272;2023-02-16T00:48:49;19.88;;;17.08;;
14760;SDS011;7472;45.396;5.272;2023-02-16T00:51:16;20.20;;;16.23;;
14760;SDS011;7472;45.396;5.272;2023-02-16T00:53:44;21.02;;;15.40;;
14760;SDS011;7472;45.396;5.272;2023-02-16T00:56:12;26.30;;;20.23;;
14760;SDS011;7472;45.396;5.272;2023-02-16T00:58:41;22.38;;;17.50;;
14760;SDS011;7472;45.396;5.272;2023-02-16T01:01:11;22.73;;;18.20;;
14760;SDS011;7472;45.396;5.272;2023-02-16T01:03:39;23.45;;;17.52;;
14760;SDS011;7472;45.396;5.272;2023-02-16T01:06:08;27.20;;;19.65;;
14760;SDS011;7472;45.396;5.272;2023-02-16T01:08:53;27.55;;;19.73;;
14760;SDS011;7472;45.396;5.272;2023-02-16T01:11:39;24.70;;;16.13;;
14760;SDS011;7472;45.396;5.272;2023-02-16T01:14:08;20.42;;;16.15;;
14760;SDS011;7472;45.396;5.272;2023-02-16T01:16:37;23.52;;;16.25;;
14760;SDS011;7472;45.396;5.272;2023-02-16T01:19:05;23.52;;;16.10;;
14760;SDS011;7472;45.396;5.272;2023-02-16T01:21:34;24.85;;;17.13;;
14760;SDS011;7472;45.396;5.272;2023-02-16T01:24:01;20.38;;;15.07;;
14760;SDS011;7472;45.396;5.272;2023-02-16T01:26:28;26.42;;;17.48;;
14760;SDS011;7472;45.396;5.272;2023-02-16T01:28:56;19.42;;;15.82;;
14760;SDS011;7472;45.396;5.272;2023-02-16T01:31:23;21.33;;;16.80;;
14760;SDS011;7472;45.396;5.272;2023-02-16T01:33:51;23.10;;;17.38;;
14760;SDS011;7472;45.396;5.272;2023-02-16T01:36:20;23.60;;;17.05;;
14760;SDS011;7472;45.396;5.272;2023-02-16T01:38:50;24.58;;;18.17;;
14760;SDS011;7472;45.396;5.272;2023-02-16T01:41:19;25.90;;;18.67;;
14760;SDS011;7472;45.396;5.272;2023-02-16T01:43:49;24.52;;;17.48;;
14760;SDS011;7472;45.396;5.272;2023-02-16T01:46:18;22.55;;;16.83;;
14760;SDS011;7472;45.396;5.272;2023-02-16T01:48:47;23.98;;;17.88;;
14760;SDS011;7472;45.396;5.272;2023-02-16T01:51:15;22.30;;;16.52;;
14760;SDS011;7472;45.396;5.272;2023-02-16T01:53:45;27.85;;;18.05;;
14760;SDS011;7472;45.396;5.272;2023-02-16T01:56:19;21.45;;;16.20;;
14760;SDS011;7472;45.396;5.272;2023-02-16T01:58:51;22.17;;;16.70;;
14760;SDS011;7472;45.396;5.272;2023-02-16T02:01:40;19.60;;;15.60;;
14760;SDS011;7472;45.396;5.272;2023-02-16T02:04:12;21.50;;;15.68;;
14760;SDS011;7472;45.396;5.272;2023-02-16T02:06:58;20.85;;;15.95;;
14760;SDS011;7472;45.396;5.272;2023-02-16T02:09:27;20.75;;;16.10;;
14760;SDS011;7472;45.396;5.272;2023-02-16T02:12:02;21.15;;;15.55;;
14760;SDS011;7472;45.396;5.272;2023-02-16T02:14:31;19.58;;;15.30;;
14760;SDS011;7472;45.396;5.272;2023-02-16T02:16:59;23.05;;;15.60;;
14760;SDS011;7472;45.396;5.272;2023-02-16T02:19:27;20.75;;;16.20;;
14760;SDS011;7472;45.396;5.272;2023-02-16T02:22:00;20.33;;;14.95;;
14760;SDS011;7472;45.396;5.272;2023-02-16T02:27:31;21.30;;;15.50;;
14760;SDS011;7472;45.396;5.272;2023-02-16T02:32:48;19.73;;;16.48;;
14760;SDS011;7472;45.396;5.272;2023-02-16T02:35:21;24.17;;;16.95;;
14760;SDS011;7472;45.396;5.272;2023-02-16T02:37:52;22.92;;;16.10;;
14760;SDS011;7472;45.396;5.272;2023-02-16T02:40:21;24.63;;;17.88;;
14760;SDS011;7472;45.396;5.272;2023-02-16T02:42:57;24.42;;;17.60;;
14760;SDS011;7472;45.396;5.272;2023-02-16T02:45:27;23.30;;;16.15;;
14760;SDS011;7472;45.396;5.272;2023-02-16T02:47:56;25.27;;;18.20;;
14760;SDS011;7472;45.396;5.272;2023-02-16T02:50:43;23.80;;;17.02;;
14760;SDS011;7472;45.396;5.272;2023-02-16T02:53:26;21.42;;;16.58;;
14760;SDS011;7472;45.396;5.272;2023-02-16T02:55:53;23.95;;;16.75;;
14760;SDS011;7472;45.396;5.272;2023-02-16T02:58:46;24.75;;;16.58;;
14760;SDS011;7472;45.396;5.272;2023-02-16T03:01:34;21.02;;;17.05;;
14760;SDS011;7472;45.396;5.272;2023-02-16T03:04:02;22.77;;;17.25;;
14760;SDS011;7472;45.396;5.272;2023-02-16T03:06:31;25.08;;;17.75;;
14760;SDS011;7472;45.396;5.272;2023-02-16T03:09:09;23.83;;;16.88;;
14760;SDS011;7472;45.396;5.272;2023-02-16T03:11:38;27.88;;;19.38;;
14760;SDS011;7472;45.396;5.272;2023-02-16T03:14:25;27.00;;;18.83;;
14760;SDS011;7472;45.396;5.272;2023-02-16T03:16:55;27.08;;;18.92;;
14760;SDS011;7472;45.396;5.272;2023-02-16T03:19:40;33.42;;;18.75;;
14760;SDS011;7472;45.396;5.272;2023-02-16T03:22:26;29.60;;;19.60;;
14760;SDS011;7472;45.396;5.272;2023-02-16T03:25:12;24.27;;;18.33;;
14760;SDS011;7472;45.396;5.272;2023-02-16T03:27:57;24.88;;;17.98;;
14760;SDS011;7472;45.396;5.272;2023-02-16T03:30:44;27.92;;;18.30;;
14760;SDS011;7472;45.396;5.272;2023-02-16T03:33:12;27.02;;;19.75;;
14760;SDS011;7472;45.396;5.272;2023-02-16T03:35:40;28.65;;;18.40;;
14760;SDS011;7472;45.396;5.272;2023-02-16T03:38:08;29.95;;;20.13;;
14760;SDS011;7472;45.396;5.272;2023-02-16T03:40:35;30.92;;;19.38;;
14760;SDS011;7472;45.396;5.272;2023-02-16T03:43:05;27.45;;;19.55;;
14760;SDS011;7472;45.396;5.272;2023-02-16T03:45:34;24.83;;;18.20;;
14760;SDS011;7472;45.396;5.272;2023-02-16T03:48:04;26.13;;;18.63;;
14760;SDS011;7472;45.396;5.272;2023-02-16T03:50:31;31.38;;;20.73;;
14760;SDS011;7472;45.396;5.272;2023-02-16T03:52:58;42.17;;;24.30;;
14760;SDS011;7472;45.396;5.272;2023-02-16T03:55:32;27.85;;;19.90;;
14760;SDS011;7472;45.396;5.272;2023-02-16T03:57:59;27.00;;;20.67;;
14760;SDS011;7472;45.396;5.272;2023-02-16T04:00:27;33.35;;;22.13;;
14760;SDS011;7472;45.396;5.272;2023-02-16T04:02:54;30.15;;;21.40;;
14760;SDS011;7472;45.396;5.272;2023-02-16T04:05:23;30.20;;;20.65;;
14760;SDS011;7472;45.396;5.272;2023-02-16T04:07:51;26.27;;;19.33;;
14760;SDS011;7472;45.396;5.272;2023-02-16T04:10:18;28.15;;;19.95;;
14760;SDS011;7472;45.396;5.272;2023-02-16T04:12:46;26.90;;;19.55;;
14760;SDS011;7472;45.396;5.272;2023-02-16T04:15:14;33.08;;;21.17;;
14760;SDS011;7472;45.396;5.272;2023-02-16T04:17:41;32.92;;;21.58;;
14760;SDS011;7472;45.396;5.272;2023-02-16T04:20:10;42.03;;;25.20;;
14760;SDS011;7472;45.396;5.272;2023-02-16T04:22:39;37.83;;;23.40;;
14760;SDS011;7472;45.396;5.272;2023-02-16T04:25:07;43.35;;;26.35;;
14760;SDS011;7472;45.396;5.272;2023-02-16T04:27:35;62.72;;;35.50;;
14760;SDS011;7472;45.396;5.272;2023-02-16T04:30:03;71.47;;;38.42;;
14760;SDS011;7472;45.396;5.272;2023-02-16T04:32:31;64.10;;;31.98;;
14760;SDS011;7472;45.396;5.272;2023-02-16T04:34:58;58.67;;;30.85;;
14760;SDS011;7472;45.396;5.272;2023-02-16T04:37:25;62.50;;;31.85;;
14760;SDS011;7472;45.396;5.272;2023-02-16T04:39:54;63.50;;;32.47;;
14760;SDS011;7472;45.396;5.272;2023-02-16T04:42:22;55.63;;;31.20;;
14760;SDS011;7472;45.396;5.272;2023-02-16T04:44:49;42.10;;;26.85;;
14760;SDS011;7472;45.396;5.272;2023-02-16T04:47:17;34.70;;;24.48;;
14760;SDS011;7472;45.396;5.272;2023-02-16T04:49:45;46.33;;;25.77;;
14760;SDS011;7472;45.396;5.272;2023-02-16T04:52:13;57.00;;;30.85;;
14760;SDS011;7472;45.396;5.272;2023-02-16T04:54:40;57.00;;;30.58;;
14760;SDS011;7472;45.396;5.272;2023-02-16T04:57:10;47.47;;;27.38;;
14760;SDS011;7472;45.396;5.272;2023-02-16T04:59:37;42.75;;;25.15;;
14760;SDS011;7472;45.396;5.272;2023-02-16T05:02:04;44.55;;;26.65;;
14760;SDS011;7472;45.396;5.272;2023-02-16T05:04:32;45.55;;;26.00;;
14760;SDS011;7472;45.396;5.272;2023-02-16T05:06:59;35.50;;;22.00;;
14760;SDS011;7472;45.396;5.272;2023-02-16T05:09:26;34.03;;;22.20;;
14760;SDS011;7472;45.396;5.272;2023-02-16T05:11:53;37.38;;;24.25;;
14760;SDS011;7472;45.396;5.272;2023-02-16T05:14:40;34.17;;;23.92;;
14760;SDS011;7472;45.396;5.272;2023-02-16T05:17:09;42.38;;;28.77;;
14760;SDS011;7472;45.396;5.272;2023-02-16T05:19:37;37.53;;;25.92;;
14760;SDS011;7472;45.396;5.272;2023-02-16T05:22:05;39.05;;;28.48;;
14760;SDS011;7472;45.396;5.272;2023-02-16T05:24:32;44.22;;;25.08;;
14760;SDS011;7472;45.396;5.272;2023-02-16T05:27:00;43.15;;;27.75;;
14760;SDS011;7472;45.396;5.272;2023-02-16T05:29:27;47.22;;;27.48;;
14760;SDS011;7472;45.396;5.272;2023-02-16T05:31:56;40.80;;;25.10;;
14760;SDS011;7472;45.396;5.272;2023-02-16T05:34:24;36.30;;;24.83;;
14760;SDS011;7472;45.396;5.272;2023-02-16T05:36:52;46.60;;;30.33;;
14760;SDS011;7472;45.396;5.272;2023-02-16T05:39:19;53.85;;;33.67;;
14760;SDS011;7472;45.396;5.272;2023-02-16T05:41:47;46.38;;;31.10;;
14760;SDS011;7472;45.396;5.272;2023-02-16T05:44:15;43.80;;;30.55;;
14760;SDS011;7472;45.396;5.272;2023-02-16T05:46:42;39.97;;;27.25;;
14760;SDS011;7472;45.396;5.272;2023-02-16T05:49:12;38.42;;;25.08;;
14760;SDS011;7472;45.396;5.272;2023-02-16T05:51:39;35.15;;;24.65;;
14760;SDS011;7472;45.396;5.272;2023-02-16T05:54:07;38.60;;;24.58;;
14760;SDS011;7472;45.396;5.272;2023-02-16T05:56:41;39.67;;;25.17;;
14760;SDS011;7472;45.396;5.272;2023-02-16T05:59:08;35.67;;;25.05;;
14760;SDS011;7472;45.396;5.272;2023-02-16T06:01:36;33.42;;;23.85;;
14760;SDS011;7472;45.396;5.272;2023-02-16T06:04:05;36.08;;;23.50;;
14760;SDS011;7472;45.396;5.272;2023-02-16T06:06:34;32.08;;;23.27;;
14760;SDS011;7472;45.396;5.272;2023-02-16T06:09:02;41.33;;;25.33;;
14760;SDS011;7472;45.396;5.272;2023-02-16T06:11:29;35.72;;;24.42;;
14760;SDS011;7472;45.396;5.272;2023-02-16T06:14:03;33.15;;;23.63;;
14760;SDS011;7472;45.396;5.272;2023-02-16T06:16:32;38.53;;;27.35;;
14760;SDS011;7472;45.396;5.272;2023-02-16T06:18:59;39.25;;;24.10;;
14760;SDS011;7472;45.396;5.272;2023-02-16T06:21:27;39.97;;;26.85;;
14760;SDS011;7472;45.396;5.272;2023-02-16T06:23:56;51.45;;;33.88;;
14760;SDS011;7472;45.396;5.272;2023-02-16T06:26:23;40.20;;;29.52;;
14760;SDS011;7472;45.396;5.272;2023-02-16T06:28:51;34.25;;;24.58;;
14760;SDS011;7472;45.396;5.272;2023-02-16T06:31:18;31.48;;;23.27;;
14760;SDS011;7472;45.396;5.272;2023-02-16T06:33:46;30.35;;;22.52;;
14760;SDS011;7472;45.396;5.272;2023-02-16T06:36:14;27.58;;;20.27;;
14760;SDS011;7472;45.396;5.272;2023-02-16T06:38:42;28.58;;;20.85;;
14760;SDS011;7472;45.396;5.272;2023-02-16T06:41:11;28.63;;;19.80;;
14760;SDS011;7472;45.396;5.272;2023-02-16T06:43:55;28.42;;;21.05;;
14760;SDS011;7472;45.396;5.272;2023-02-16T06:46:22;25.52;;;17.90;;
14760;SDS011;7472;45.396;5.272;2023-02-16T06:48:50;24.33;;;17.67;;
14760;SDS011;7472;45.396;5.272;2023-02-16T06:51:17;22.50;;;16.45;;
14760;SDS011;7472;45.396;5.272;2023-02-16T06:53:45;24.52;;;16.17;;
14760;SDS011;7472;45.396;5.272;2023-02-16T06:56:13;20.85;;;13.63;;
14760;SDS011;7472;45.396;5.272;2023-02-16T06:58:41;26.02;;;15.68;;
14760;SDS011;7472;45.396;5.272;2023-02-16T07:01:08;25.73;;;17.17;;
14760;SDS011;7472;45.396;5.272;2023-02-16T07:03:36;25.15;;;17.50;;
14760;SDS011;7472;45.396;5.272;2023-02-16T07:06:04;48.88;;;26.05;;
14760;SDS011;7472;45.396;5.272;2023-02-16T07:08:31;34.97;;;19.13;;
14760;SDS011;7472;45.396;5.272;2023-02-16T07:10:59;27.85;;;17.35;;
14760;SDS011;7472;45.396;5.272;2023-02-16T07:13:28;28.58;;;18.27;;
14760;SDS011;7472;45.396;5.272;2023-02-16T07:15:55;30.40;;;17.73;;
14760;SDS011;7472;45.396;5.272;2023-02-16T07:18:23;26.13;;;15.73;;
14760;SDS011;7472;45.396;5.272;2023-02-16T07:20:50;18.73;;;13.10;;
14760;SDS011;7472;45.396;5.272;2023-02-16T07:23:18;16.90;;;12.40;;
14760;SDS011;7472;45.396;5.272;2023-02-16T07:25:45;18.58;;;14.43;;
14760;SDS011;7472;45.396;5.272;2023-02-16T07:28:13;20.33;;;14.20;;
14760;SDS011;7472;45.396;5.272;2023-02-16T07:30:42;18.05;;;13.93;;
14760;SDS011;7472;45.396;5.272;2023-02-16T07:33:12;20.77;;;12.02;;
14760;SDS011;7472;45.396;5.272;2023-02-16T07:35:40;16.80;;;12.13;;
14760;SDS011;7472;45.396;5.272;2023-02-16T07:38:08;17.48;;;12.00;;
14760;SDS011;7472;45.396;5.272;2023-02-16T07:40:35;18.02;;;11.93;;
14760;SDS011;7472;45.396;5.272;2023-02-16T07:43:03;15.02;;;12.07;;
14760;SDS011;7472;45.396;5.272;2023-02-16T07:45:31;16.00;;;12.93;;
14760;SDS011;7472;45.396;5.272;2023-02-16T07:48:00;17.25;;;12.40;;
14760;SDS011;7472;45.396;5.272;2023-02-16T07:50:28;15.57;;;12.35;;
14760;SDS011;7472;45.396;5.272;2023-02-16T07:52:55;14.82;;;11.32;;
14760;SDS011;7472;45.396;5.272;2023-02-16T07:55:23;16.08;;;12.32;;
14760;SDS011;7472;45.396;5.272;2023-02-16T07:57:50;18.90;;;14.32;;
14760;SDS011;7472;45.396;5.272;2023-02-16T08:00:22;20.40;;;14.90;;
14760;SDS011;7472;45.396;5.272;2023-02-16T08:02:49;19.95;;;16.00;;
14760;SDS011;7472;45.396;5.272;2023-02-16T08:05:18;20.85;;;15.43;;
14760;SDS011;7472;45.396;5.272;2023-02-16T08:07:45;20.60;;;14.88;;
14760;SDS011;7472;45.396;5.272;2023-02-16T08:10:13;19.08;;;14.43;;
14760;SDS011;7472;45.396;5.272;2023-02-16T08:12:41;20.35;;;13.45;;
14760;SDS011;7472;45.396;5.272;2023-02-16T08:15:08;20.83;;;14.57;;
14760;SDS011;7472;45.396;5.272;2023-02-16T08:17:36;15.75;;;12.88;;
14760;SDS011;7472;45.396;5.272;2023-02-16T08:20:04;15.93;;;10.60;;
14760;SDS011;7472;45.396;5.272;2023-02-16T08:22:34;14.30;;;10.77;;
14760;SDS011;7472;45.396;5.272;2023-02-16T08:25:01;13.85;;;10.20;;
14760;SDS011;7472;45.396;5.272;2023-02-16T08:27:29;15.20;;;12.70;;
14760;SDS011;7472;45.396;5.272;2023-02-16T08:29:56;15.60;;;11.75;;
14760;SDS011;7472;45.396;5.272;2023-02-16T08:32:25;18.08;;;14.45;;
14760;SDS011;7472;45.396;5.272;2023-02-16T08:34:52;20.98;;;14.10;;
14760;SDS011;7472;45.396;5.272;2023-02-16T08:37:20;18.27;;;13.73;;
14760;SDS011;7472;45.396;5.272;2023-02-16T08:39:50;15.50;;;13.13;;
14760;SDS011;7472;45.396;5.272;2023-02-16T08:42:17;19.15;;;15.07;;
14760;SDS011;7472;45.396;5.272;2023-02-16T08:44:45;15.38;;;12.70;;
14760;SDS011;7472;45.396;5.272;2023-02-16T08:47:12;16.15;;;13.35;;
14760;SDS011;7472;45.396;5.272;2023-02-16T08:49:41;17.25;;;12.90;;
14760;SDS011;7472;45.396;5.272;2023-02-16T08:52:08;18.55;;;13.40;;
14760;SDS011;7472;45.396;5.272;2023-02-16T08:54:36;15.43;;;12.43;;
14760;SDS011;7472;45.396;5.272;2023-02-16T08:57:06;15.32;;;12.55;;
14760;SDS011;7472;45.396;5.272;2023-02-16T08:59:33;16.50;;;12.40;;
14760;SDS011;7472;45.396;5.272;2023-02-16T09:02:01;16.27;;;12.70;;
14760;SDS011;7472;45.396;5.272;2023-02-16T09:04:28;13.73;;;11.48;;
14760;SDS011;7472;45.396;5.272;2023-02-16T09:06:56;13.23;;;11.77;;
14760;SDS011;7472;45.396;5.272;2023-02-16T09:09:24;11.60;;;9.93;;
14760;SDS011;7472;45.396;5.272;2023-02-16T09:11:51;11.73;;;9.02;;
14760;SDS011;7472;45.396;5.272;2023-02-16T09:14:20;10.65;;;7.55;;
14760;SDS011;7472;45.396;5.272;2023-02-16T09:16:48;8.27;;;7.25;;
14760;SDS011;7472;45.396;5.272;2023-02-16T09:19:17;10.52;;;8.75;;
14760;SDS011;7472;45.396;5.272;2023-02-16T09:21:45;8.88;;;7.43;;
14760;SDS011;7472;45.396;5.272;2023-02-16T09:24:14;8.70;;;7.82;;
14760;SDS011;7472;45.396;5.272;2023-02-16T09:26:42;9.32;;;7.90;;
14760;SDS011;7472;45.396;5.272;2023-02-16T09:29:10;10.90;;;8.60;;
14760;SDS011;7472;45.396;5.272;2023-02-16T09:31:39;9.73;;;8.43;;
14760;SDS011;7472;45.396;5.272;2023-02-16T09:34:13;12.93;;;8.77;;
14760;SDS011;7472;45.396;5.272;2023-02-16T09:36:41;10.40;;;8.48;;
14760;SDS011;7472;45.396;5.272;2023-02-16T09:39:09;13.60;;;8.38;;
14760;SDS011;7472;45.396;5.272;2023-02-16T09:41:40;10.32;;;8.60;;
14760;SDS011;7472;45.396;5.272;2023-02-16T09:44:17;9.27;;;8.00;;
14760;SDS011;7472;45.396;5.272;2023-02-16T09:46:48;12.15;;;8.65;;
14760;SDS011;7472;45.396;5.272;2023-02-16T09:49:21;9.82;;;8.35;;
14760;SDS011;7472;45.396;5.272;2023-02-16T09:51:53;9.57;;;8.57;;
14760;SDS011;7472;45.396;5.272;2023-02-16T09:54:24;10.85;;;8.52;;
14760;SDS011;7472;45.396;5.272;2023-02-16T09:56:56;9.68;;;8.65;;
14760;SDS011;7472;45.396;5.272;2023-02-16T09:59:31;10.43;;;9.13;;
14760;SDS011;7472;45.396;5.272;2023-02-16T10:02:06;12.82;;;9.63;;
14760;SDS011;7472;45.396;5.272;2023-02-16T10:04:41;10.18;;;8.88;;
14760;SDS011;7472;45.396;5.272;2023-02-16T10:07:13;10.45;;;8.93;;
14760;SDS011;7472;45.396;5.272;2023-02-16T10:09:44;10.20;;;8.20;;
14760;SDS011;7472;45.396;5.272;2023-02-16T10:12:14;12.00;;;8.68;;
14760;SDS011;7472;45.396;5.272;2023-02-16T10:14:44;12.18;;;8.48;;
14760;SDS011;7472;45.396;5.272;2023-02-16T10:17:16;8.90;;;7.85;;
14760;SDS011;7472;45.396;5.272;2023-02-16T10:19:47;11.18;;;8.07;;
14760;SDS011;7472;45.396;5.272;2023-02-16T10:22:25;10.65;;;8.85;;
14760;SDS011;7472;45.396;5.272;2023-02-16T10:24:56;12.88;;;8.05;;
14760;SDS011;7472;45.396;5.272;2023-02-16T10:27:26;9.10;;;7.35;;
14760;SDS011;7472;45.396;5.272;2023-02-16T10:29:56;10.10;;;8.90;;
14760;SDS011;7472;45.396;5.272;2023-02-16T10:32:26;9.55;;;7.50;;
14760;SDS011;7472;45.396;5.272;2023-02-16T10:34:58;12.38;;;9.27;;
14760;SDS011;7472;45.396;5.272;2023-02-16T10:40:13;9.73;;;8.38;;
14760;SDS011;7472;45.396;5.272;2023-02-16T10:42:44;9.48;;;8.52;;
14760;SDS011;7472;45.396;5.272;2023-02-16T10:45:17;11.55;;;8.73;;
14760;SDS011;7472;45.396;5.272;2023-02-16T10:47:47;9.93;;;8.60;;
14760;SDS011;7472;45.396;5.272;2023-02-16T10:50:17;12.07;;;8.68;;
14760;SDS011;7472;45.396;5.272;2023-02-16T10:52:46;11.68;;;9.13;;
14760;SDS011;7472;45.396;5.272;2023-02-16T10:55:14;10.18;;;8.05;;
14760;SDS011;7472;45.396;5.272;2023-02-16T10:57:42;11.52;;;9.15;;
14760;SDS011;7472;45.396;5.272;2023-02-16T11:00:10;10.25;;;7.78;;
14760;SDS011;7472;45.396;5.272;2023-02-16T11:02:40;11.95;;;9.02;;
14760;SDS011;7472;45.396;5.272;2023-02-16T11:08:09;10.50;;;7.82;;
14760;SDS011;7472;45.396;5.272;2023-02-16T11:10:39;8.50;;;7.57;;
14760;SDS011;7472;45.396;5.272;2023-02-16T11:13:16;11.57;;;8.82;;
14760;SDS011;7472;45.396;5.272;2023-02-16T11:15:45;10.95;;;8.65;;
14760;SDS011;7472;45.396;5.272;2023-02-16T11:18:22;8.73;;;7.80;;
14760;SDS011;7472;45.396;5.272;2023-02-16T11:20:53;12.60;;;8.35;;
14760;SDS011;7472;45.396;5.272;2023-02-16T11:23:23;9.05;;;7.88;;
14760;SDS011;7472;45.396;5.272;2023-02-16T11:25:55;11.02;;;8.68;;
14760;SDS011;7472;45.396;5.272;2023-02-16T11:28:27;10.95;;;8.63;;
14760;SDS011;7472;45.396;5.272;2023-02-16T11:30:58;12.07;;;8.70;;
14760;SDS011;7472;45.396;5.272;2023-02-16T11:33:26;11.48;;;8.88;;
14760;SDS011;7472;45.396;5.272;2023-02-16T11:35:54;14.13;;;9.82;;
14760;SDS011;7472;45.396;5.272;2023-02-16T11:38:25;10.70;;;9.60;;
14760;SDS011;7472;45.396;5.272;2023-02-16T11:40:53;14.85;;;11.60;;
14760;SDS011;7472;45.396;5.272;2023-02-16T11:43:20;13.15;;;11.00;;
14760;SDS011;7472;45.396;5.272;2023-02-16T11:45:55;13.57;;;11.02;;
14760;SDS011;7472;45.396;5.272;2023-02-16T11:48:24;11.68;;;10.57;;
14760;SDS011;7472;45.396;5.272;2023-02-16T11:50:56;12.73;;;10.32;;
14760;SDS011;7472;45.396;5.272;2023-02-16T11:53:26;13.80;;;10.70;;
14760;SDS011;7472;45.396;5.272;2023-02-16T11:56:08;10.40;;;9.35;;
14760;SDS011;7472;45.396;5.272;2023-02-16T11:58:37;11.13;;;9.88;;
14760;SDS011;7472;45.396;5.272;2023-02-16T12:01:06;12.52;;;10.73;;
14760;SDS011;7472;45.396;5.272;2023-02-16T12:03:51;10.98;;;9.48;;
14760;SDS011;7472;45.396;5.272;2023-02-16T12:06:33;10.43;;;9.32;;
14760;SDS011;7472;45.396;5.272;2023-02-16T12:09:08;11.40;;;10.25;;
14760;SDS011;7472;45.396;5.272;2023-02-16T12:11:39;10.30;;;9.20;;
14760;SDS011;7472;45.396;5.272;2023-02-16T12:14:18;9.38;;;8.38;;
14760;SDS011;7472;45.396;5.272;2023-02-16T12:16:49;14.60;;;10.13;;
14760;SDS011;7472;45.396;5.272;2023-02-16T12:19:23;10.60;;;9.57;;
14760;SDS011;7472;45.396;5.272;2023-02-16T12:21:53;7.95;;;7.15;;
14760;SDS011;7472;45.396;5.272;2023-02-16T12:24:28;8.57;;;7.65;;
14760;SDS011;7472;45.396;5.272;2023-02-16T12:27:02;9.55;;;8.65;;
14760;SDS011;7472;45.396;5.272;2023-02-16T12:29:36;8.95;;;8.05;;
14760;SDS011;7472;45.396;5.272;2023-02-16T12:32:27;8.73;;;7.82;;
14760;SDS011;7472;45.396;5.272;2023-02-16T12:35:02;7.18;;;6.45;;
14760;SDS011;7472;45.396;5.272;2023-02-16T12:37:35;7.43;;;6.60;;
14760;SDS011;7472;45.396;5.272;2023-02-16T12:40:11;7.68;;;6.88;;
14760;SDS011;7472;45.396;5.272;2023-02-16T12:42:46;9.80;;;6.78;;
14760;SDS011;7472;45.396;5.272;2023-02-16T12:45:17;8.32;;;7.40;;
14760;SDS011;7472;45.396;5.272;2023-02-16T12:47:46;8.32;;;6.93;;
14760;SDS011;7472;45.396;5.272;2023-02-16T12:50:17;8.43;;;6.70;;
14760;SDS011;7472;45.396;5.272;2023-02-16T12:52:45;10.25;;;6.57;;
14760;SDS011;7472;45.396;5.272;2023-02-16T12:55:19;7.93;;;5.45;;
14760;SDS011;7472;45.396;5.272;2023-02-16T12:57:51;7.25;;;5.60;;
14760;SDS011;7472;45.396;5.272;2023-02-16T13:00:22;9.32;;;6.80;;
14760;SDS011;7472;45.396;5.272;2023-02-16T13:02:52;7.65;;;6.60;;
14760;SDS011;7472;45.396;5.272;2023-02-16T13:05:22;6.55;;;5.68;;
14760;SDS011;7472;45.396;5.272;2023-02-16T13:07:53;6.07;;;5.47;;
14760;SDS011;7472;45.396;5.272;2023-02-16T13:10:26;6.30;;;5.10;;
14760;SDS011;7472;45.396;5.272;2023-02-16T13:12:59;6.45;;;5.85;;
14760;SDS011;7472;45.396;5.272;2023-02-16T13:15:30;5.93;;;4.75;;
14760;SDS011;7472;45.396;5.272;2023-02-16T13:17:59;6.43;;;5.18;;
14760;SDS011;7472;45.396;5.272;2023-02-16T13:20:28;6.88;;;5.78;;
14760;SDS011;7472;45.396;5.272;2023-02-16T13:25:48;6.20;;;5.60;;
14760;SDS011;7472;45.396;5.272;2023-02-16T13:28:27;7.05;;;6.35;;
14760;SDS011;7472;45.396;5.272;2023-02-16T13:31:00;9.27;;;6.88;;
14760;SDS011;7472;45.396;5.272;2023-02-16T13:33:37;8.45;;;7.65;;
14760;SDS011;7472;45.396;5.272;2023-02-16T13:39:03;7.35;;;6.65;;
14760;SDS011;7472;45.396;5.272;2023-02-16T13:41:43;9.38;;;8.35;;
14760;SDS011;7472;45.396;5.272;2023-02-16T13:44:14;8.55;;;7.68;;
14760;SDS011;7472;45.396;5.272;2023-02-16T13:46:42;8.68;;;7.85;;
14760;SDS011;7472;45.396;5.272;2023-02-16T13:49:26;12.20;;;9.73;;
14760;SDS011;7472;45.396;5.272;2023-02-16T13:51:55;10.10;;;9.07;;
14760;SDS011;7472;45.396;5.272;2023-02-16T13:54:27;8.75;;;7.82;;
14760;SDS011;7472;45.396;5.272;2023-02-16T13:56:57;8.90;;;6.85;;
14760;SDS011;7472;45.396;5.272;2023-02-16T14:05:09;8.25;;;7.45;;
14760;SDS011;7472;45.396;5.272;2023-02-16T14:07:37;6.85;;;6.15;;
14760;SDS011;7472;45.396;5.272;2023-02-16T14:10:05;6.50;;;5.80;;
14760;SDS011;7472;45.396;5.272;2023-02-16T14:12:37;7.25;;;6.60;;
14760;SDS011;7472;45.396;5.272;2023-02-16T14:15:15;6.90;;;6.20;;
14760;SDS011;7472;45.396;5.272;2023-02-16T14:17:43;6.63;;;5.80;;
14760;SDS011;7472;45.396;5.272;2023-02-16T14:20:24;6.68;;;5.97;;
14760;SDS011;7472;45.396;5.272;2023-02-16T14:22:52;7.07;;;5.95;;
14760;SDS011;7472;45.396;5.272;2023-02-16T14:25:32;6.95;;;5.53;;
14760;SDS011;7472;45.396;5.272;2023-02-16T14:28:01;7.50;;;5.82;;
14760;SDS011;7472;45.396;5.272;2023-02-16T14:30:30;8.07;;;5.85;;
14760;SDS011;7472;45.396;5.272;2023-02-16T14:32:59;7.90;;;6.03;;
14760;SDS011;7472;45.396;5.272;2023-02-16T14:35:28;6.70;;;6.10;;
14760;SDS011;7472;45.396;5.272;2023-02-16T14:37:58;6.22;;;5.63;;
14760;SDS011;7472;45.396;5.272;2023-02-16T14:43:16;8.57;;;6.00;;
14760;SDS011;7472;45.396;5.272;2023-02-16T14:48:45;6.35;;;5.57;;
14760;SDS011;7472;45.396;5.272;2023-02-16T14:51:19;7.03;;;6.32;;
14760;SDS011;7472;45.396;5.272;2023-02-16T14:54:01;7.43;;;6.60;;
14760;SDS011;7472;45.396;5.272;2023-02-16T14:56:41;10.05;;;6.93;;
14760;SDS011;7472;45.396;5.272;2023-02-16T14:59:15;6.97;;;6.30;;
14760;SDS011;7472;45.396;5.272;2023-02-16T15:01:47;7.85;;;7.05;;
14760;SDS011;7472;45.396;5.272;2023-02-16T15:04:25;7.35;;;6.65;;
14760;SDS011;7472;45.396;5.272;2023-02-16T15:06:53;10.23;;;6.93;;
14760;SDS011;7472;45.396;5.272;2023-02-16T15:09:23;7.97;;;7.07;;
14760;SDS011;7472;45.396;5.272;2023-02-16T15:11:52;10.02;;;7.45;;
14760;SDS011;7472;45.396;5.272;2023-02-16T15:14:41;7.15;;;6.38;;
14760;SDS011;7472;45.396;5.272;2023-02-16T15:17:09;7.03;;;6.32;;
14760;SDS011;7472;45.396;5.272;2023-02-16T15:19:43;7.45;;;6.50;;
14760;SDS011;7472;45.396;5.272;2023-02-16T15:22:16;8.30;;;6.47;;
14760;SDS011;7472;45.396;5.272;2023-02-16T15:24:52;8.55;;;7.20;;
14760;SDS011;7472;45.396;5.272;2023-02-16T15:27:20;8.35;;;7.55;;
14760;SDS011;7472;45.396;5.272;2023-02-16T15:30:02;7.18;;;6.32;;
14760;SDS011;7472;45.396;5.272;2023-02-16T15:32:30;10.88;;;7.55;;